Time;durP1;ratioP1;P1;durP2;ratioP2;P2;SDS_P1;SDS_P2;PMS_P1;PMS_P2;Temp;Humidity;BMP_temperature;BMP_pressure;BME280_temperature;BME280_humidity;BME280_pressure;Samples;Min_cycle;Max_cycle;Signal;HPM_P1;HPM_P2
2021/11/07 00:02:26;;;;;;;40.5;53.6;;;;;;;0.8;79.1;99490;;;;
2021/11/07 00:12:13;;;;;;;40.5;53.6;;;;;;;0.8;79.4;99480;;;;
2021/11/07 00:22:11;;;;;;;40.5;53.6;;;;;;;0.7;79.7;99450;;;;
2021/11/07 00:32:14;;;;;;;41.6;53.1;;;;;;;0.8;80.7;99430;;;;
2021/11/07 00:42:10;;;;;;;41.6;53.1;;;;;;;0.8;80.4;99430;;;;
2021/11/07 00:53:18;;;;;;;41.6;53.1;;;;;;;0.8;79.9;99440;;;;
2021/11/07 01:03:11;;;;;;;20.1;25.3;;;;;;;0.7;79.3;99400;;;;
2021/11/07 01:13:06;;;;;;;20.1;25.3;;;;;;;0.6;79.2;99400;;;;
2021/11/07 01:23:13;;;;;;;20.1;25.3;;;;;;;0.5;79.4;99370;;;;
2021/11/07 01:34:07;;;;;;;23.1;28.2;;;;;;;0.5;79.4;99360;;;;
2021/11/07 01:44:06;;;;;;;23.1;28.2;;;;;;;0.4;80.7;99360;;;;
2021/11/07 01:54:15;;;;;;;23.1;28.2;;;;;;;0.7;82;99350;;;;
2021/11/07 02:04:07;;;;;;;22.1;28.2;;;;;;;0.7;81.7;99330;;;;
2021/11/07 02:14:06;;;;;;;22.1;28.2;;;;;;;0.7;80.7;99310;;;;
2021/11/07 02:24:06;;;;;;;22.1;28.2;;;;;;;0.6;80.2;99310;;;;
2021/11/07 02:34:06;;;;;;;18.8;23.2;;;;;;;0.5;80;99310;;;;
2021/11/07 02:44:06;;;;;;;18.8;23.2;;;;;;;0.4;80.1;99310;;;;
2021/11/07 02:54:06;;;;;;;18.8;23.2;;;;;;;0.3;79.8;99290;;;;
2021/11/07 03:05:06;;;;;;;22.6;31.2;;;;;;;0.2;80.1;99260;;;;
2021/11/07 03:15:06;;;;;;;22.6;31.2;;;;;;;0.3;80.7;99240;;;;
2021/11/07 03:25:06;;;;;;;22.6;31.2;;;;;;;0.3;81;99240;;;;
2021/11/07 03:35:07;;;;;;;29.5;38.3;;;;;;;0.4;80.9;99220;;;;
2021/11/07 03:45:06;;;;;;;29.5;38.3;;;;;;;0.4;80.6;99210;;;;
2021/11/07 03:55:06;;;;;;;29.5;38.3;;;;;;;0.7;80.9;99200;;;;
2021/11/07 04:05:07;;;;;;;26.3;33.1;;;;;;;1;80.6;99200;;;;
2021/11/07 04:16:06;;;;;;;26.3;33.1;;;;;;;1.3;80.8;99200;;;;
2021/11/07 04:26:06;;;;;;;26.3;33.1;;;;;;;1.5;80.3;99190;;;;
2021/11/07 04:36:06;;;;;;;44.2;56.2;;;;;;;1.6;79.7;99180;;;;
2021/11/07 04:46:06;;;;;;;44.2;56.2;;;;;;;1.8;79.9;99170;;;;
2021/11/07 04:56:06;;;;;;;44.2;56.2;;;;;;;2.1;79.3;99170;;;;
2021/11/07 05:06:06;;;;;;;49.7;64;;;;;;;2;79.2;99130;;;;
2021/11/07 05:16:06;;;;;;;49.7;64;;;;;;;2.3;79.1;99100;;;;
2021/11/07 05:27:06;;;;;;;49.7;64;;;;;;;2.5;78.7;99090;;;;
2021/11/07 05:37:06;;;;;;;38.2;45.1;;;;;;;2.6;78.5;99080;;;;
2021/11/07 05:47:06;;;;;;;38.2;45.1;;;;;;;2.7;78.2;99070;;;;
2021/11/07 05:57:06;;;;;;;38.2;45.1;;;;;;;2.7;78;99050;;;;
2021/11/07 06:07:06;;;;;;;29.3;33.4;;;;;;;2.7;78.6;99040;;;;
2021/11/07 06:17:06;;;;;;;29.3;33.4;;;;;;;3;78.9;99030;;;;
2021/11/07 06:27:07;;;;;;;29.3;33.4;;;;;;;3.3;78.4;99040;;;;
2021/11/07 06:37:06;;;;;;;31.7;37.7;;;;;;;3.7;78.3;99030;;;;
2021/11/07 06:47:08;;;;;;;31.7;37.7;;;;;;;4;77.4;99020;;;;
2021/11/07 06:57:06;;;;;;;31.7;37.7;;;;;;;4.2;76.2;99020;;;;
2021/11/07 07:07:06;;;;;;;37.8;44.8;;;;;;;4.4;74.9;99020;;;;
2021/11/07 07:17:19;;;;;;;37.8;44.8;;;;;;;4.3;74.1;99030;;;;
2021/11/07 07:27:23;;;;;;;37.8;44.8;;;;;;;4.2;74.4;99020;;;;
2021/11/07 07:37:06;;;;;;;29.1;33.1;;;;;;;4.7;74.2;99000;;;;
2021/11/07 07:47:06;;;;;;;29.1;33.1;;;;;;;5.2;75.2;98970;;;;
2021/11/07 07:57:06;;;;;;;29.1;33.1;;;;;;;5.9;75.8;98950;;;;
2021/11/07 08:07:07;;;;;;;28.9;35.2;;;;;;;6.7;72.4;98940;;;;
2021/11/07 08:17:06;;;;;;;28.9;35.2;;;;;;;7.1;70.8;98930;;;;
2021/11/07 08:27:06;;;;;;;28.9;35.2;;;;;;;7.2;70.6;98920;;;;
2021/11/07 08:37:08;;;;;;;34.8;42.7;;;;;;;7.7;69.5;98910;;;;
2021/11/07 09:07:18;;;;;;;15.6;19.5;;;;;;;9.2;60.1;98860;;;;
2021/11/07 09:18:06;;;;;;;15.6;19.5;;;;;;;9.6;60.7;98850;;;;
2021/11/07 09:28:09;;;;;;;11.7;17.2;;;;;;;10.1;60;98840;;;;
2021/11/07 09:38:08;;;;;;;11.7;17.2;;;;;;;10.8;58;98820;;;;
2021/11/07 09:48:10;;;;;;;11.7;17.2;;;;;;;11.5;56.8;98790;;;;
2021/11/07 09:58:06;;;;;;;14.3;20.9;;;;;;;12.1;55.9;98780;;;;
2021/11/07 10:08:08;;;;;;;14.3;20.9;;;;;;;12.1;54.4;98760;;;;
2021/11/07 10:18:07;;;;;;;14.3;20.9;;;;;;;12.3;54.8;98740;;;;
2021/11/07 10:28:07;;;;;;;9.3;12.8;;;;;;;12.7;53.4;98730;;;;
2021/11/07 10:38:15;;;;;;;9.3;12.8;;;;;;;12.5;53;98720;;;;
2021/11/07 10:48:18;;;;;;;9.3;12.8;;;;;;;12.6;52.5;98710;;;;
2021/11/07 10:58:06;;;;;;;6.3;9.2;;;;;;;12.9;53.2;98690;;;;
2021/11/07 11:08:09;;;;;;;6.3;9.2;;;;;;;12.8;51.7;98660;;;;
2021/11/07 11:18:19;;;;;;;6.3;9.2;;;;;;;12.9;50.2;98640;;;;
2021/11/07 11:28:16;;;;;;;2.6;5.7;;;;;;;13.3;50.6;98640;;;;
2021/11/07 11:38:11;;;;;;;2.6;5.7;;;;;;;12.9;50.5;98610;;;;
2021/11/07 11:48:11;;;;;;;2.6;5.7;;;;;;;12.9;50.8;98590;;;;
2021/11/07 11:58:17;;;;;;;2.4;5.1;;;;;;;12.7;50.4;98590;;;;
2021/11/07 12:08:07;;;;;;;2.4;5.1;;;;;;;12.6;50.6;98570;;;;
2021/11/07 12:18:07;;;;;;;2.4;5.1;;;;;;;12.6;51.5;98550;;;;
2021/11/07 12:28:06;;;;;;;1.9;3.7;;;;;;;12.5;51.4;98540;;;;
2021/11/07 12:48:07;;;;;;;1.9;3.7;;;;;;;12.5;51.3;98520;;;;
2021/11/07 12:58:06;;;;;;;3.5;7.1;;;;;;;12.4;52.6;98510;;;;
2021/11/07 13:08:08;;;;;;;3.5;7.1;;;;;;;12.3;51.7;98510;;;;
2021/11/07 13:18:17;;;;;;;3.5;7.1;;;;;;;12.4;50.9;98480;;;;
2021/11/07 13:28:06;;;;;;;2.6;5.2;;;;;;;12.4;50.4;98480;;;;
2021/11/07 13:38:08;;;;;;;2.6;5.2;;;;;;;12.4;50.7;98480;;;;
2021/11/07 13:48:06;;;;;;;2.6;5.2;;;;;;;12.3;51.7;98470;;;;
2021/11/07 13:58:06;;;;;;;3.4;7.5;;;;;;;12.1;51.7;98460;;;;
2021/11/07 14:08:06;;;;;;;3.4;7.5;;;;;;;11.9;51.6;98460;;;;
2021/11/07 14:18:07;;;;;;;3.4;7.5;;;;;;;11.6;51.3;98440;;;;
2021/11/07 14:28:10;;;;;;;4.1;7.8;;;;;;;11.2;51.3;98420;;;;
2021/11/07 14:38:10;;;;;;;4.1;7.8;;;;;;;11;50.9;98420;;;;
2021/11/07 14:49:17;;;;;;;4.1;7.8;;;;;;;10.9;51.6;98410;;;;
2021/11/07 14:59:13;;;;;;;4;7.2;;;;;;;10.7;51.9;98400;;;;
2021/11/07 15:09:09;;;;;;;4;7.2;;;;;;;10.5;52.6;98400;;;;
2021/11/07 15:19:10;;;;;;;4;7.2;;;;;;;10.3;53;98390;;;;
2021/11/07 15:29:06;;;;;;;8.7;12;;;;;;;10.2;54.2;98390;;;;
2021/11/07 15:39:06;;;;;;;8.7;12;;;;;;;10.2;54.7;98390;;;;
2021/11/07 15:49:06;;;;;;;8.7;12;;;;;;;10.1;55.3;98420;;;;
2021/11/07 15:59:37;;;;;;;7.8;12.3;;;;;;;10;56.2;98410;;;;
2021/11/07 16:09:13;;;;;;;7.8;12.3;;;;;;;10.1;56.2;98410;;;;
2021/11/07 16:19:10;;;;;;;7.8;12.3;;;;;;;10.1;56.4;98410;;;;
2021/11/07 16:29:06;;;;;;;12.9;18.8;;;;;;;10;56.1;98400;;;;
2021/11/07 16:39:13;;;;;;;12.9;18.8;;;;;;;10;55.5;98420;;;;
2021/11/07 16:49:08;;;;;;;12.9;18.8;;;;;;;10;56.7;98420;;;;
2021/11/07 16:59:12;;;;;;;12.6;14.8;;;;;;;9.9;57.2;98440;;;;
2021/11/07 17:09:14;;;;;;;12.6;14.8;;;;;;;9.9;57.4;98440;;;;
2021/11/07 17:20:10;;;;;;;12.6;14.8;;;;;;;9.9;57.5;98430;;;;
2021/11/07 17:30:10;;;;;;;13.4;16.7;;;;;;;9.8;57.8;98450;;;;
2021/11/07 17:40:26;;;;;;;13.4;16.7;;;;;;;9.8;58.1;98450;;;;
2021/11/07 17:50:16;;;;;;;13.4;16.7;;;;;;;9.7;58.5;98450;;;;
2021/11/07 18:01:11;;;;;;;19.7;22.9;;;;;;;9.7;58.9;98450;;;;
2021/11/07 18:11:09;;;;;;;19.7;22.9;;;;;;;9.7;58.7;98460;;;;
2021/11/07 18:21:06;;;;;;;19.7;22.9;;;;;;;9.6;59.8;98450;;;;
2021/11/07 18:31:06;;;;;;;28.9;37.3;;;;;;;9.5;59.9;98470;;;;
2021/11/07 18:41:06;;;;;;;28.9;37.3;;;;;;;9.6;59.6;98480;;;;
2021/11/07 18:51:06;;;;;;;28.9;37.3;;;;;;;9.6;59.2;98490;;;;
2021/11/07 19:01:06;;;;;;;20.6;24.9;;;;;;;9.6;58.7;98490;;;;
2021/11/07 19:11:06;;;;;;;20.6;24.9;;;;;;;9.6;59.3;98490;;;;
2021/11/07 19:21:06;;;;;;;20.6;24.9;;;;;;;9.6;59.3;98490;;;;
2021/11/07 19:32:06;;;;;;;17.7;24;;;;;;;9.6;58.9;98510;;;;
2021/11/07 19:42:06;;;;;;;17.7;24;;;;;;;9.6;58.9;98520;;;;
2021/11/07 19:52:06;;;;;;;17.7;24;;;;;;;9.6;59.5;98520;;;;
2021/11/07 20:02:18;;;;;;;11.6;16.3;;;;;;;9.5;59.9;98530;;;;
2021/11/07 20:12:06;;;;;;;11.6;16.3;;;;;;;9.5;60.8;98530;;;;
2021/11/07 20:22:07;;;;;;;11.6;16.3;;;;;;;9.5;60.6;98540;;;;
2021/11/07 20:32:07;;;;;;;8.3;13.1;;;;;;;9.4;62;98580;;;;
2021/11/07 20:42:11;;;;;;;8.3;13.1;;;;;;;9;64.6;98580;;;;
2021/11/07 20:52:09;;;;;;;8.3;13.1;;;;;;;8.6;68.3;98590;;;;
2021/11/07 21:02:10;;;;;;;9.5;13.1;;;;;;;8.4;69.5;98580;;;;
2021/11/07 21:12:12;;;;;;;9.5;13.1;;;;;;;8.3;70.5;98580;;;;
2021/11/07 21:22:28;;;;;;;9.5;13.1;;;;;;;8.2;71.4;98600;;;;
2021/11/07 21:32:10;;;;;;;8.6;11.6;;;;;;;8.2;72.2;98600;;;;
2021/11/07 21:42:11;;;;;;;8.6;11.6;;;;;;;8;73.4;98580;;;;
2021/11/07 21:52:06;;;;;;;8.6;11.6;;;;;;;8;73;98600;;;;
2021/11/07 22:02:06;;;;;;;10.3;13.3;;;;;;;8;73.3;98600;;;;
2021/11/07 22:12:07;;;;;;;10.3;13.3;;;;;;;8;73.2;98600;;;;
2021/11/07 22:22:14;;;;;;;10.3;13.3;;;;;;;8;73.8;98600;;;;
2021/11/07 22:33:09;;;;;;;10.1;13.3;;;;;;;8;73.2;98600;;;;
2021/11/07 22:43:06;;;;;;;10.1;13.3;;;;;;;8;72.8;98600;;;;
2021/11/07 22:53:14;;;;;;;10.1;13.3;;;;;;;8.1;72.3;98600;;;;
2021/11/07 23:03:17;;;;;;;13;17.9;;;;;;;8.1;72.4;98600;;;;
2021/11/07 23:13:06;;;;;;;13;17.9;;;;;;;8.1;72.5;98600;;;;
2021/11/07 23:23:07;;;;;;;13;17.9;;;;;;;8;72.6;98600;;;;
2021/11/07 23:33:06;;;;;;;10.3;14;;;;;;;8;72.2;98600;;;;
2021/11/07 23:44:07;;;;;;;10.3;14;;;;;;;8;72.1;98610;;;;
2021/11/07 23:54:08;;;;;;;10.3;14;;;;;;;7.9;72.3;98610;;;;
